Time;durP1;ratioP1;P1;durP2;ratioP2;P2;SDS_P1;SDS_P2;PMS_P1;PMS_P2;Temp;Humidity;BMP_temperature;BMP_pressure;BME280_temperature;BME280_humidity;BME280_pressure;Samples;Min_cycle;Max_cycle;Signal;HPM_P1;HPM_P2
2022/07/15 00:01:28;;;;;;;;;;;25.30;41.80;;;;;;5091430;28;19908;-62
2022/07/15 00:03:53;;;;;;;;;;;25.30;41.70;;;;;;5092725;28;19972;-61
2022/07/15 00:06:19;;;;;;;;;;;25.40;41.80;;;;;;5090725;28;20360;-62
2022/07/15 00:08:44;;;;;;;;;;;25.30;41.90;;;;;;5071407;28;19915;-62
2022/07/15 00:11:10;;;;;;;;;;;25.30;41.90;;;;;;5072557;28;19974;-62
2022/07/15 00:13:36;;;;;;;;;;;25.30;41.90;;;;;;5075642;28;19924;-62
2022/07/15 00:16:02;;;;;;;;;;;25.30;41.90;;;;;;5092768;28;19908;-62
2022/07/15 00:18:27;;;;;;;;;;;25.30;41.90;;;;;;5092378;28;19916;-61
2022/07/15 00:20:53;;;;;;;;;;;25.30;42.00;;;;;;5091988;28;19920;-61
2022/07/15 00:23:18;;;;;;;;;;;25.30;41.90;;;;;;5090668;28;19918;-61
2022/07/15 00:25:44;;;;;;;;;;;25.30;42.00;;;;;;5075171;28;19912;-62
2022/07/15 00:28:09;;;;;;;;;;;25.30;41.90;;;;;;5070899;28;20353;-61
2022/07/15 00:30:38;;;;;;;;;;;25.30;42.10;;;;;;5083736;28;20348;-62
2022/07/15 00:33:04;;;;;;;;;;;25.20;42.00;;;;;;5092064;28;19908;-61
2022/07/15 00:35:29;;;;;;;;;;;25.20;42.00;;;;;;5091715;28;19966;-62
2022/07/15 00:37:55;;;;;;;;;;;25.20;42.00;;;;;;5088038;28;19908;-61
2022/07/15 00:40:20;;;;;;;;;;;25.20;42.10;;;;;;5062995;28;20367;-61
2022/07/15 00:42:46;;;;;;;;;;;25.20;42.10;;;;;;5068827;28;19963;-62
2022/07/15 00:45:13;;;;;;;;;;;25.20;42.30;;;;;;5054111;28;20423;-62
2022/07/15 00:47:39;;;;;;;;;;;25.20;42.30;;;;;;5075062;28;19911;-62
2022/07/15 00:50:05;;;;;;;;;;;25.20;42.30;;;;;;5091785;28;19916;-62
2022/07/15 00:52:30;;;;;;;;;;;25.20;42.30;;;;;;5090662;28;19909;-62
2022/07/15 00:54:57;;;;;;;;;;;25.10;42.40;;;;;;5095787;28;19963;-62
2022/07/15 00:57:22;;;;;;;;;;;25.20;42.40;;;;;;5094096;28;19908;-62
2022/07/15 00:59:48;;;;;;;;;;;25.20;42.50;;;;;;5082244;28;19919;-62
2022/07/15 01:02:13;;;;;;;;;;;25.20;42.50;;;;;;5084767;28;20299;-62
2022/07/15 01:04:39;;;;;;;;;;;25.20;42.50;;;;;;5069303;28;19911;-62
2022/07/15 01:07:04;;;;;;;;;;;25.20;42.50;;;;;;5096161;28;19935;-61
2022/07/15 01:09:29;;;;;;;;;;;25.10;42.50;;;;;;5082431;28;19912;-61
2022/07/15 01:11:55;;;;;;;;;;;25.10;42.50;;;;;;5094598;28;19920;-62
2022/07/15 01:14:20;;;;;;;;;;;25.10;42.60;;;;;;5095250;28;19920;-61
2022/07/15 01:16:46;;;;;;;;;;;25.10;42.50;;;;;;5088799;28;20015;-61
2022/07/15 01:19:11;;;;;;;;;;;25.10;42.50;;;;;;5083656;28;19958;-61
2022/07/15 01:21:37;;;;;;;;;;;25.10;42.50;;;;;;5079234;28;19909;-62
2022/07/15 01:24:02;;;;;;;;;;;25.10;42.50;;;;;;5095683;28;20398;-62
2022/07/15 01:26:28;;;;;;;;;;;25.10;42.50;;;;;;5091858;28;20255;-62
2022/07/15 01:28:53;;;;;;;;;;;25.10;42.50;;;;;;5072375;28;19919;-61
2022/07/15 01:31:19;;;;;;;;;;;25.10;42.50;;;;;;5072345;28;20473;-61
2022/07/15 01:33:45;;;;;;;;;;;25.00;42.60;;;;;;5079449;28;20019;-62
2022/07/15 01:36:10;;;;;;;;;;;25.10;42.70;;;;;;5083667;28;19912;-62
2022/07/15 01:38:36;;;;;;;;;;;25.00;42.70;;;;;;5078457;28;19913;-62
2022/07/15 01:41:01;;;;;;;;;;;25.00;42.60;;;;;;5090678;28;20276;-62
2022/07/15 01:43:27;;;;;;;;;;;25.00;42.60;;;;;;5095267;28;20283;-62
2022/07/15 01:45:52;;;;;;;;;;;25.00;42.60;;;;;;5084291;28;20277;-62
2022/07/15 01:51:02;;;;;;;;;;;25.00;42.70;;;;;;5085572;28;20327;-61
2022/07/15 01:53:27;;;;;;;;;;;25.00;42.70;;;;;;5080929;28;19951;-61
2022/07/15 01:55:53;;;;;;;;;;;25.00;42.70;;;;;;5095143;28;19962;-61
2022/07/15 01:58:18;;;;;;;;;;;25.00;42.80;;;;;;5093821;28;19908;-61
2022/07/15 02:00:44;;;;;;;;;;;25.00;42.80;;;;;;5093849;28;19912;-61
2022/07/15 02:03:09;;;;;;;;;;;25.00;42.80;;;;;;5093415;28;20584;-62
2022/07/15 02:05:35;;;;;;;;;;;25.00;42.90;;;;;;5092104;28;19962;-62
2022/07/15 02:08:00;;;;;;;;;;;25.00;42.90;;;;;;5077834;28;19913;-62
2022/07/15 02:10:39;;;;;;;;;;;24.90;42.90;;;;;;5081617;28;19916;-62
2022/07/15 02:13:05;;;;;;;;;;;24.90;42.80;;;;;;5101633;28;20058;-62
2022/07/15 02:15:30;;;;;;;;;;;24.90;42.90;;;;;;5094594;28;19920;-61
2022/07/15 02:17:56;;;;;;;;;;;24.90;42.90;;;;;;5094453;28;19919;-62
2022/07/15 02:20:21;;;;;;;;;;;24.90;42.90;;;;;;5094398;28;20316;-61
2022/07/15 02:22:46;;;;;;;;;;;24.90;43.10;;;;;;5090474;28;20288;-62
2022/07/15 02:25:12;;;;;;;;;;;24.80;43.20;;;;;;5091077;28;20295;-62
2022/07/15 02:27:37;;;;;;;;;;;24.80;43.30;;;;;;5075369;28;19908;-62
2022/07/15 02:30:03;;;;;;;;;;;24.90;43.40;;;;;;5094619;28;19918;-62
2022/07/15 02:32:28;;;;;;;;;;;24.90;43.30;;;;;;5094090;28;19924;-60
2022/07/15 02:34:54;;;;;;;;;;;24.90;43.30;;;;;;5094092;28;19919;-61
2022/07/15 02:37:19;;;;;;;;;;;24.90;43.30;;;;;;5094558;28;19916;-62
2022/07/15 02:39:45;;;;;;;;;;;24.90;43.30;;;;;;5071127;28;20387;-62
2022/07/15 02:42:10;;;;;;;;;;;24.90;43.40;;;;;;5082522;28;20379;-62
2022/07/15 02:44:36;;;;;;;;;;;24.90;43.40;;;;;;5064842;28;20303;-62
2022/07/15 02:47:01;;;;;;;;;;;24.90;43.40;;;;;;5083457;28;20229;-62
2022/07/15 02:49:27;;;;;;;;;;;24.90;43.50;;;;;;5093288;28;19915;-62
2022/07/15 02:51:52;;;;;;;;;;;24.90;43.50;;;;;;5094212;28;19912;-62
2022/07/15 02:54:18;;;;;;;;;;;24.90;43.50;;;;;;5093897;28;19943;-61
2022/07/15 02:56:43;;;;;;;;;;;24.90;43.50;;;;;;5090453;28;19908;-62
2022/07/15 02:59:09;;;;;;;;;;;24.90;43.50;;;;;;5089936;28;20363;-62
2022/07/15 03:01:35;;;;;;;;;;;24.90;44.20;;;;;;5061315;28;19908;-61
2022/07/15 03:04:00;;;;;;;;;;;24.90;43.50;;;;;;5080199;28;20338;-61
2022/07/15 03:06:25;;;;;;;;;;;24.90;43.50;;;;;;5093716;28;19912;-61
2022/07/15 03:08:51;;;;;;;;;;;24.90;43.50;;;;;;5081702;28;20015;-61
2022/07/15 03:11:16;;;;;;;;;;;24.90;43.50;;;;;;5090659;28;19916;-61
2022/07/15 03:13:42;;;;;;;;;;;24.90;43.50;;;;;;5090143;28;19916;-61
2022/07/15 03:16:07;;;;;;;;;;;24.90;43.50;;;;;;5080814;28;19919;-61
2022/07/15 03:18:33;;;;;;;;;;;24.90;43.50;;;;;;5077555;28;20360;-61
2022/07/15 03:20:58;;;;;;;;;;;24.90;43.50;;;;;;5087984;28;20031;-62
2022/07/15 03:23:23;;;;;;;;;;;24.90;43.50;;;;;;5093330;28;19974;-62
2022/07/15 03:25:49;;;;;;;;;;;24.90;43.50;;;;;;5093510;28;19931;-62
2022/07/15 03:28:14;;;;;;;;;;;24.90;43.60;;;;;;5070052;28;19913;-62
2022/07/15 03:30:40;;;;;;;;;;;24.90;43.70;;;;;;5074830;28;19913;-62
2022/07/15 03:33:05;;;;;;;;;;;24.90;43.70;;;;;;5088775;28;20391;-62
2022/07/15 03:35:31;;;;;;;;;;;24.90;43.70;;;;;;5078774;28;20395;-62
2022/07/15 03:37:56;;;;;;;;;;;24.90;43.80;;;;;;5076137;28;20334;-62
2022/07/15 03:40:22;;;;;;;;;;;24.80;43.70;;;;;;5081510;28;19943;-61
2022/07/15 03:42:47;;;;;;;;;;;24.80;43.80;;;;;;5093134;28;19957;-62
2022/07/15 03:45:13;;;;;;;;;;;24.90;43.80;;;;;;5084680;28;19923;-62
2022/07/15 03:47:38;;;;;;;;;;;24.80;43.80;;;;;;5089837;28;20416;-61
2022/07/15 03:50:04;;;;;;;;;;;24.80;43.80;;;;;;5079772;28;19951;-61
2022/07/15 03:52:29;;;;;;;;;;;24.90;43.90;;;;;;5079198;28;20486;-61
2022/07/15 03:54:55;;;;;;;;;;;24.80;43.80;;;;;;5085954;28;19986;-61
2022/07/15 03:57:20;;;;;;;;;;;24.80;43.80;;;;;;5091481;28;19953;-61
2022/07/15 03:59:46;;;;;;;;;;;24.90;43.90;;;;;;5081169;28;19916;-62
2022/07/15 04:02:11;;;;;;;;;;;24.80;43.80;;;;;;5092727;28;19957;-62
2022/07/15 04:04:37;;;;;;;;;;;24.80;43.80;;;;;;5089220;28;19950;-62
2022/07/15 04:07:02;;;;;;;;;;;24.80;43.70;;;;;;5088046;28;19912;-62
2022/07/15 04:09:28;;;;;;;;;;;24.80;43.70;;;;;;5072639;28;19909;-62
2022/07/15 04:11:53;;;;;;;;;;;24.90;43.80;;;;;;5091367;28;19916;-61
2022/07/15 04:14:22;;;;;;;;;;;24.80;43.70;;;;;;5092300;28;19997;-62
2022/07/15 04:16:47;;;;;;;;;;;24.80;43.70;;;;;;5092580;28;19912;-62
2022/07/15 04:19:12;;;;;;;;;;;24.80;43.70;;;;;;5090469;28;20355;-62
2022/07/15 04:21:38;;;;;;;;;;;24.80;43.70;;;;;;5089602;28;19912;-61
2022/07/15 04:24:04;;;;;;;;;;;24.80;43.60;;;;;;5079347;28;19918;-62
2022/07/15 04:26:29;;;;;;;;;;;24.80;43.60;;;;;;5077174;28;19954;-61
2022/07/15 04:28:55;;;;;;;;;;;24.70;43.50;;;;;;5085753;28;20018;-61
2022/07/15 04:31:20;;;;;;;;;;;24.80;43.60;;;;;;5090989;28;19912;-61
2022/07/15 04:33:46;;;;;;;;;;;24.70;43.50;;;;;;5090464;28;19916;-62
2022/07/15 04:36:11;;;;;;;;;;;24.70;43.50;;;;;;5091971;28;20011;-62
2022/07/15 04:38:37;;;;;;;;;;;24.70;43.50;;;;;;5082283;28;19931;-62
2022/07/15 04:41:02;;;;;;;;;;;24.70;43.50;;;;;;5082886;28;19931;-62
2022/07/15 04:43:28;;;;;;;;;;;24.70;43.50;;;;;;5077690;28;19908;-61
2022/07/15 04:45:53;;;;;;;;;;;24.70;43.50;;;;;;5062593;28;20426;-61
2022/07/15 04:51:03;;;;;;;;;;;24.70;43.60;;;;;;5091866;28;20371;-62
2022/07/15 04:53:28;;;;;;;;;;;24.70;43.60;;;;;;5091894;28;19939;-62
2022/07/15 04:55:54;;;;;;;;;;;24.70;43.70;;;;;;5086967;28;19909;-62
2022/07/15 04:58:19;;;;;;;;;;;24.70;43.80;;;;;;5081222;28;19912;-61
2022/07/15 05:00:45;;;;;;;;;;;24.60;43.80;;;;;;5076109;28;19912;-61
2022/07/15 05:03:10;;;;;;;;;;;24.70;43.90;;;;;;5088134;28;19912;-62
2022/07/15 05:05:36;;;;;;;;;;;24.60;44.00;;;;;;5058789;28;19912;-62
2022/07/15 05:08:01;;;;;;;;;;;24.60;43.90;;;;;;5088038;28;19909;-61
2022/07/15 05:10:27;;;;;;;;;;;24.70;44.00;;;;;;5082353;28;19908;-61
2022/07/15 05:12:52;;;;;;;;;;;24.60;44.00;;;;;;5086719;28;20455;-61
2022/07/15 05:15:18;;;;;;;;;;;24.60;43.90;;;;;;5089144;28;20338;-61
2022/07/15 05:17:43;;;;;;;;;;;24.60;44.10;;;;;;5075990;28;20445;-61
2022/07/15 05:20:09;;;;;;;;;;;24.60;44.10;;;;;;5079419;28;19908;-62
2022/07/15 05:22:34;;;;;;;;;;;24.50;44.00;;;;;;5092023;28;19955;-62
2022/07/15 05:24:59;;;;;;;;;;;24.60;44.10;;;;;;5091743;28;19944;-62
2022/07/15 05:27:25;;;;;;;;;;;24.60;44.10;;;;;;5075658;28;19913;-62
2022/07/15 05:29:50;;;;;;;;;;;24.60;44.10;;;;;;5064242;28;19908;-61
2022/07/15 05:32:16;;;;;;;;;;;24.60;44.10;;;;;;5080655;28;19913;-61
2022/07/15 05:34:41;;;;;;;;;;;24.50;44.00;;;;;;5074227;28;19919;-61
2022/07/15 05:37:07;;;;;;;;;;;24.60;44.10;;;;;;5087714;28;19954;-61
2022/07/15 05:39:33;;;;;;;;;;;24.60;44.10;;;;;;5078992;28;19916;-62
2022/07/15 05:41:58;;;;;;;;;;;24.60;44.10;;;;;;5077227;28;20378;-62
2022/07/15 05:44:24;;;;;;;;;;;24.60;44.10;;;;;;5095196;28;19908;-62
2022/07/15 05:46:50;;;;;;;;;;;24.60;44.10;;;;;;5090377;28;19916;-61
2022/07/15 05:49:16;;;;;;;;;;;24.60;44.10;;;;;;5091485;28;19934;-62
2022/07/15 05:51:41;;;;;;;;;;;24.60;44.20;;;;;;5079859;28;20404;-62
2022/07/15 05:54:07;;;;;;;;;;;24.50;44.20;;;;;;5081200;28;19912;-62
2022/07/15 05:56:32;;;;;;;;;;;24.50;44.30;;;;;;5090669;28;19912;-62
2022/07/15 05:58:58;;;;;;;;;;;24.50;44.30;;;;;;5081823;28;20488;-62
2022/07/15 06:01:23;;;;;;;;;;;24.50;44.40;;;;;;5093174;28;19912;-62
2022/07/15 06:03:49;;;;;;;;;;;24.50;44.60;;;;;;5090219;28;19908;-62
2022/07/15 06:06:14;;;;;;;;;;;24.50;44.60;;;;;;5083203;28;19943;-62
2022/07/15 06:08:39;;;;;;;;;;;24.50;44.70;;;;;;5077992;28;19962;-62
2022/07/15 06:11:05;;;;;;;;;;;24.50;44.70;;;;;;5072372;28;20308;-62
2022/07/15 06:13:31;;;;;;;;;;;24.50;44.70;;;;;;5077440;28;20030;-61
2022/07/15 06:15:56;;;;;;;;;;;24.50;44.60;;;;;;5072910;28;19995;-62
2022/07/15 06:18:22;;;;;;;;;;;24.50;44.70;;;;;;5074255;28;19912;-62
2022/07/15 06:20:47;;;;;;;;;;;24.50;44.90;;;;;;5073773;28;19962;-61
2022/07/15 06:23:13;;;;;;;;;;;24.40;44.90;;;;;;5072172;28;20007;-62
2022/07/15 06:25:39;;;;;;;;;;;24.40;44.90;;;;;;5073002;28;20383;-61
2022/07/15 06:28:04;;;;;;;;;;;24.40;44.90;;;;;;5074393;28;20356;-62
2022/07/15 06:30:30;;;;;;;;;;;24.40;44.90;;;;;;5071440;28;19987;-61
2022/07/15 06:32:56;;;;;;;;;;;24.40;44.80;;;;;;5071865;28;19942;-62
2022/07/15 06:35:21;;;;;;;;;;;24.40;44.90;;;;;;5073088;28;20014;-62
2022/07/15 06:37:47;;;;;;;;;;;24.40;44.80;;;;;;5087784;28;19916;-62
2022/07/15 06:40:12;;;;;;;;;;;24.40;44.70;;;;;;5065831;28;20271;-62
2022/07/15 06:42:38;;;;;;;;;;;24.40;44.80;;;;;;5069622;28;20326;-62
2022/07/15 06:45:04;;;;;;;;;;;24.40;44.80;;;;;;5068864;28;19958;-62
2022/07/15 06:47:30;;;;;;;;;;;24.50;44.90;;;;;;5070818;28;19947;-61
2022/07/15 06:49:55;;;;;;;;;;;24.50;44.90;;;;;;5073603;28;19955;-61
2022/07/15 06:52:20;;;;;;;;;;;24.50;44.80;;;;;;5070457;28;19915;-61
2022/07/15 06:54:46;;;;;;;;;;;24.50;44.90;;;;;;5071442;28;19968;-61
2022/07/15 06:57:12;;;;;;;;;;;24.50;44.90;;;;;;5073859;28;19909;-61
2022/07/15 06:59:38;;;;;;;;;;;24.50;44.90;;;;;;5073252;28;19999;-61
2022/07/15 07:02:03;;;;;;;;;;;24.50;44.90;;;;;;5069738;28;20367;-61
2022/07/15 07:04:29;;;;;;;;;;;24.50;44.90;;;;;;5071380;28;19908;-61
2022/07/15 07:06:54;;;;;;;;;;;24.50;44.90;;;;;;5072165;28;19999;-61
2022/07/15 07:09:19;;;;;;;;;;;24.50;44.80;;;;;;5074568;28;19924;-61
2022/07/15 07:11:45;;;;;;;;;;;24.50;45.50;;;;;;5070072;28;20589;-62
2022/07/15 07:14:10;;;;;;;;;;;24.50;44.90;;;;;;5075278;28;20340;-62
2022/07/15 07:16:36;;;;;;;;;;;24.50;44.90;;;;;;5073082;28;20490;-62
2022/07/15 07:19:01;;;;;;;;;;;24.50;44.90;;;;;;5070233;28;19912;-62
2022/07/15 07:21:27;;;;;;;;;;;24.50;44.90;;;;;;5073091;28;19969;-61
2022/07/15 07:23:52;;;;;;;;;;;24.40;44.90;;;;;;5073513;28;19941;-61
2022/07/15 07:26:18;;;;;;;;;;;24.40;44.90;;;;;;5073303;28;20453;-61
2022/07/15 07:28:43;;;;;;;;;;;24.40;45.00;;;;;;5070560;28;19908;-61
2022/07/15 07:31:09;;;;;;;;;;;24.40;45.00;;;;;;5084558;28;19908;-61
2022/07/15 07:33:35;;;;;;;;;;;24.40;44.90;;;;;;5070270;28;19916;-62
2022/07/15 07:36:00;;;;;;;;;;;24.40;45.00;;;;;;5069830;28;19920;-61
2022/07/15 07:38:26;;;;;;;;;;;24.40;45.00;;;;;;5068277;28;20036;-61
2022/07/15 07:40:52;;;;;;;;;;;24.40;45.10;;;;;;5072383;28;20031;-61
2022/07/15 07:43:18;;;;;;;;;;;24.50;45.10;;;;;;5069777;28;19944;-61
2022/07/15 07:45:44;;;;;;;;;;;24.40;45.10;;;;;;5069322;28;20034;-62
2022/07/15 07:48:09;;;;;;;;;;;24.40;45.00;;;;;;5065257;28;19921;-61
2022/07/15 07:50:35;;;;;;;;;;;24.40;45.10;;;;;;5070286;28;19923;-62
2022/07/15 07:53:00;;;;;;;;;;;24.40;45.00;;;;;;5071026;28;19968;-62
2022/07/15 07:55:26;;;;;;;;;;;24.50;45.10;;;;;;5072495;28;20393;-62
2022/07/15 07:57:52;;;;;;;;;;;24.50;45.00;;;;;;5070456;28;20323;-61
2022/07/15 08:00:18;;;;;;;;;;;24.50;45.10;;;;;;5070178;28;19966;-62
2022/07/15 08:02:43;;;;;;;;;;;24.50;45.10;;;;;;5069567;28;20300;-61
2022/07/15 08:05:09;;;;;;;;;;;24.50;45.10;;;;;;5048998;28;19919;-61
2022/07/15 08:07:35;;;;;;;;;;;24.50;45.20;;;;;;5067660;28;19913;-61
2022/07/15 08:10:01;;;;;;;;;;;24.40;45.10;;;;;;5067217;28;20454;-62
2022/07/15 08:12:28;;;;;;;;;;;24.40;45.20;;;;;;5070013;28;19920;-61
2022/07/15 08:14:54;;;;;;;;;;;24.40;45.20;;;;;;5062290;28;20345;-61
2022/07/15 08:17:20;;;;;;;;;;;24.40;45.30;;;;;;5070224;28;20375;-61
2022/07/15 08:19:46;;;;;;;;;;;24.40;45.40;;;;;;5068271;28;19916;-61
2022/07/15 08:22:11;;;;;;;;;;;24.40;45.50;;;;;;5070989;28;20367;-62
2022/07/15 08:24:37;;;;;;;;;;;24.40;45.50;;;;;;5053589;28;20352;-60
2022/07/15 08:27:02;;;;;;;;;;;24.40;45.60;;;;;;5071036;28;19908;-61
2022/07/15 08:29:27;;;;;;;;;;;24.30;45.60;;;;;;5071220;28;19916;-62
2022/07/15 08:31:53;;;;;;;;;;;24.30;45.70;;;;;;5060763;28;19924;-61
2022/07/15 08:34:18;;;;;;;;;;;24.40;45.80;;;;;;5073151;28;19916;-61
2022/07/15 08:36:44;;;;;;;;;;;24.30;45.80;;;;;;5075267;28;20402;-62
2022/07/15 08:39:09;;;;;;;;;;;24.30;45.90;;;;;;5071279;28;19913;-61
2022/07/15 08:41:36;;;;;;;;;;;24.40;46.00;;;;;;5062750;28;19971;-61
2022/07/15 08:44:02;;;;;;;;;;;24.40;45.90;;;;;;5079428;28;19913;-61
2022/07/15 08:46:27;;;;;;;;;;;24.30;46.10;;;;;;5066345;28;20016;-62
2022/07/15 08:48:52;;;;;;;;;;;24.30;46.30;;;;;;5074381;28;20061;-62
2022/07/15 08:51:21;;;;;;;;;;;24.40;46.20;;;;;;5064347;28;20368;-63
2022/07/15 08:53:47;;;;;;;;;;;24.50;46.00;;;;;;5067959;28;20011;-61
2022/07/15 08:56:12;;;;;;;;;;;24.40;46.20;;;;;;5069513;28;20012;-62
2022/07/15 08:58:38;;;;;;;;;;;24.40;46.30;;;;;;5066395;28;20376;-61
2022/07/15 09:01:04;;;;;;;;;;;24.50;46.30;;;;;;5066027;28;20392;-61
2022/07/15 09:03:29;;;;;;;;;;;24.50;46.20;;;;;;5057500;28;20450;-61
2022/07/15 09:05:55;;;;;;;;;;;24.40;46.30;;;;;;5068617;28;19916;-61
2022/07/15 09:08:20;;;;;;;;;;;24.40;46.30;;;;;;5065127;28;20657;-62
2022/07/15 09:10:53;;;;;;;;;;;24.50;46.20;;;;;;5072918;28;19913;-61
2022/07/15 09:13:26;;;;;;;;;;;24.50;46.00;;;;;;5070490;28;19960;-62
2022/07/15 09:15:52;;;;;;;;;;;24.60;45.90;;;;;;5066106;28;19924;-61
2022/07/15 09:18:18;;;;;;;;;;;24.60;45.90;;;;;;5067006;28;19920;-62
2022/07/15 09:20:44;;;;;;;;;;;24.60;45.90;;;;;;5068611;28;19963;-62
2022/07/15 09:23:10;;;;;;;;;;;24.60;45.90;;;;;;5073790;28;19951;-61
2022/07/15 09:25:36;;;;;;;;;;;24.50;45.90;;;;;;5069814;28;20003;-61
2022/07/15 09:28:06;;;;;;;;;;;24.50;45.90;;;;;;5072284;28;20015;-61
2022/07/15 09:36:01;;;;;;;;;;;24.50;45.70;;;;;;5072272;28;19939;-61
2022/07/15 09:38:28;;;;;;;;;;;24.60;45.80;;;;;;5071828;28;19916;-62
2022/07/15 09:40:54;;;;;;;;;;;24.60;45.80;;;;;;5063400;28;19982;-61
2022/07/15 09:43:20;;;;;;;;;;;24.60;45.60;;;;;;5070164;28;20054;-62
2022/07/15 09:45:45;;;;;;;;;;;24.60;45.60;;;;;;5074359;28;20034;-62
2022/07/15 09:48:14;;;;;;;;;;;24.60;45.60;;;;;;5060374;28;19920;-61
2022/07/15 09:50:39;;;;;;;;;;;24.60;45.60;;;;;;5056762;28;19913;-62
2022/07/15 09:53:12;;;;;;;;;;;24.70;45.60;;;;;;5072768;28;20291;-61
2022/07/15 09:55:38;;;;;;;;;;;24.60;45.70;;;;;;5072972;28;19924;-61
2022/07/15 09:58:05;;;;;;;;;;;24.70;45.80;;;;;;5073959;28;19952;-62
2022/07/15 10:00:31;;;;;;;;;;;24.60;45.70;;;;;;5070260;28;19917;-62
2022/07/15 10:02:57;;;;;;;;;;;24.60;45.60;;;;;;5066215;28;20047;-61
2022/07/15 10:05:22;;;;;;;;;;;24.70;45.60;;;;;;5066885;28;19962;-62
2022/07/15 10:07:48;;;;;;;;;;;24.70;45.60;;;;;;5072926;28;19919;-60
2022/07/15 10:10:13;;;;;;;;;;;24.50;45.70;;;;;;5067143;28;19917;-62
2022/07/15 10:12:46;;;;;;;;;;;24.50;45.40;;;;;;5068275;28;19921;-61
2022/07/15 10:15:33;;;;;;;;;;;24.50;45.20;;;;;;5068490;28;20372;-61
2022/07/15 10:18:15;;;;;;;;;;;24.50;45.20;;;;;;5067371;28;20016;-61
2022/07/15 10:20:41;;;;;;;;;;;24.60;45.30;;;;;;5067224;28;19924;-61
2022/07/15 10:23:06;;;;;;;;;;;24.60;45.00;;;;;;5076265;28;19917;-61
2022/07/15 10:25:47;;;;;;;;;;;24.70;45.20;;;;;;5071478;28;19916;-61
2022/07/15 10:28:17;;;;;;;;;;;24.70;45.00;;;;;;5070609;28;19912;-62
2022/07/15 10:30:43;;;;;;;;;;;24.70;44.80;;;;;;5073239;28;19921;-62
2022/07/15 10:33:18;;;;;;;;;;;24.70;44.70;;;;;;5069326;28;19943;-62
2022/07/15 10:35:44;;;;;;;;;;;24.70;44.50;;;;;;5059211;28;19959;-62
2022/07/15 10:38:19;;;;;;;;;;;24.70;44.60;;;;;;5069828;28;20222;-61
2022/07/15 10:40:57;;;;;;;;;;;24.70;44.50;;;;;;5065766;28;19920;-62
2022/07/15 10:43:42;;;;;;;;;;;24.70;44.30;;;;;;5070415;28;19913;-62
2022/07/15 10:46:16;;;;;;;;;;;24.70;44.20;;;;;;5062462;28;20395;-63
2022/07/15 10:48:42;;;;;;;;;;;24.60;44.30;;;;;;5069767;28;20357;-63
2022/07/15 10:51:08;;;;;;;;;;;24.60;44.20;;;;;;5066658;28;20014;-62
2022/07/15 10:53:33;;;;;;;;;;;24.50;44.20;;;;;;5072851;28;19995;-62
2022/07/15 10:56:29;;;;;;;;;;;24.60;44.10;;;;;;5070213;28;19913;-62
2022/07/15 10:59:07;;;;;;;;;;;24.60;44.10;;;;;;5055330;28;19913;-62
2022/07/15 11:01:32;;;;;;;;;;;24.60;44.00;;;;;;5054189;28;20403;-62
2022/07/15 11:04:27;;;;;;;;;;;24.70;44.00;;;;;;5075001;28;20007;-62
2022/07/15 11:07:02;;;;;;;;;;;24.70;43.80;;;;;;5055166;28;19908;-63
2022/07/15 11:09:46;;;;;;;;;;;24.60;43.90;;;;;;5081911;28;19965;-62
2022/07/15 11:12:12;;;;;;;;;;;24.60;43.60;;;;;;5092869;28;20018;-62
2022/07/15 11:14:45;;;;;;;;;;;24.60;43.50;;;;;;5079199;28;20007;-62
2022/07/15 11:17:11;;;;;;;;;;;24.60;43.50;;;;;;5084407;28;19912;-62
2022/07/15 11:19:36;;;;;;;;;;;24.60;43.50;;;;;;5071593;28;19908;-63
2022/07/15 11:22:02;;;;;;;;;;;24.60;43.30;;;;;;5063095;28;19916;-63
2022/07/15 11:24:27;;;;;;;;;;;24.70;43.20;;;;;;5067452;28;20277;-63
2022/07/15 11:26:53;;;;;;;;;;;24.70;43.10;;;;;;5090621;28;20272;-62
2022/07/15 11:29:18;;;;;;;;;;;24.70;43.10;;;;;;5074537;28;19948;-62
2022/07/15 11:31:44;;;;;;;;;;;24.70;43.00;;;;;;5083265;28;19958;-62
2022/07/15 11:34:09;;;;;;;;;;;24.70;43.20;;;;;;5083684;28;19912;-63
2022/07/15 11:36:35;;;;;;;;;;;24.70;43.20;;;;;;5091870;28;19912;-62
2022/07/15 11:39:00;;;;;;;;;;;24.70;43.20;;;;;;5077008;28;19919;-62
2022/07/15 11:46:54;;;;;;;;;;;24.70;43.20;;;;;;5085610;28;19915;-62
2022/07/15 11:49:26;;;;;;;;;;;24.70;43.10;;;;;;5078678;28;19921;-63
2022/07/15 11:51:52;;;;;;;;;;;24.70;43.20;;;;;;5073081;28;19912;-62
2022/07/15 11:54:17;;;;;;;;;;;24.70;43.20;;;;;;5080748;28;19924;-62
2022/07/15 11:56:42;;;;;;;;;;;24.70;43.20;;;;;;5084494;28;20011;-63
2022/07/15 11:59:08;;;;;;;;;;;24.70;43.10;;;;;;5088302;28;20337;-62
2022/07/15 12:01:33;;;;;;;;;;;24.70;43.00;;;;;;5083352;28;20341;-62
2022/07/15 12:03:59;;;;;;;;;;;24.70;42.90;;;;;;5090338;28;19996;-62
2022/07/15 12:06:26;;;;;;;;;;;24.80;43.00;;;;;;5071281;28;19916;-63
2022/07/15 12:08:52;;;;;;;;;;;24.80;42.90;;;;;;5071480;28;20012;-62
2022/07/15 12:11:22;;;;;;;;;;;24.80;42.90;;;;;;5071663;28;20283;-63
2022/07/15 12:13:51;;;;;;;;;;;24.70;42.90;;;;;;5080898;28;22346;-62
2022/07/15 12:16:20;;;;;;;;;;;24.70;42.90;;;;;;5083386;28;19955;-62
2022/07/15 12:18:46;;;;;;;;;;;24.70;43.00;;;;;;5091197;28;19912;-62
2022/07/15 12:21:11;;;;;;;;;;;24.60;42.90;;;;;;5087112;28;19962;-62
2022/07/15 12:23:37;;;;;;;;;;;24.60;43.20;;;;;;5079826;28;19916;-62
2022/07/15 12:26:03;;;;;;;;;;;24.60;43.20;;;;;;5090120;28;19912;-62
2022/07/15 12:28:29;;;;;;;;;;;24.60;43.10;;;;;;5071748;28;20488;-62
2022/07/15 12:30:55;;;;;;;;;;;24.60;43.20;;;;;;5066849;28;19912;-62
2022/07/15 12:33:20;;;;;;;;;;;24.60;43.20;;;;;;5072743;28;20367;-62
2022/07/15 12:35:46;;;;;;;;;;;24.70;43.10;;;;;;5070047;28;20386;-62
2022/07/15 12:38:28;;;;;;;;;;;24.70;43.10;;;;;;5080586;28;19912;-62
2022/07/15 12:40:56;;;;;;;;;;;24.60;43.80;;;;;;5072608;28;20321;-62
2022/07/15 12:43:42;;;;;;;;;;;24.60;43.20;;;;;;5090382;28;20279;-62
2022/07/15 12:46:07;;;;;;;;;;;24.70;43.20;;;;;;5075020;28;19916;-62
2022/07/15 12:48:33;;;;;;;;;;;24.60;42.90;;;;;;5070125;28;20004;-62
2022/07/15 12:50:58;;;;;;;;;;;24.70;43.00;;;;;;5069373;28;19908;-63
2022/07/15 12:53:24;;;;;;;;;;;24.70;43.00;;;;;;5068435;28;20386;-62
2022/07/15 12:55:50;;;;;;;;;;;24.70;43.10;;;;;;5066212;28;20263;-62
2022/07/15 12:58:17;;;;;;;;;;;24.70;43.00;;;;;;5071231;28;19920;-62
2022/07/15 13:00:43;;;;;;;;;;;24.70;43.10;;;;;;5076153;28;19912;-62
2022/07/15 13:03:09;;;;;;;;;;;24.70;43.20;;;;;;5074725;28;19917;-62
2022/07/15 13:05:37;;;;;;;;;;;24.70;43.30;;;;;;5081047;28;19912;-62
2022/07/15 13:08:03;;;;;;;;;;;24.70;43.30;;;;;;5087050;28;20356;-62
2022/07/15 13:10:29;;;;;;;;;;;24.80;43.40;;;;;;5089618;28;20016;-62
2022/07/15 13:12:54;;;;;;;;;;;24.80;43.40;;;;;;5081407;28;20299;-62
2022/07/15 13:15:20;;;;;;;;;;;24.80;43.40;;;;;;5085723;28;20363;-62
2022/07/15 13:17:45;;;;;;;;;;;24.80;43.50;;;;;;5081419;28;20385;-63
2022/07/15 13:20:12;;;;;;;;;;;24.70;43.50;;;;;;5077580;28;20315;-62
2022/07/15 13:22:37;;;;;;;;;;;24.70;43.50;;;;;;5078781;28;19938;-62
2022/07/15 13:25:03;;;;;;;;;;;24.70;43.60;;;;;;5078961;28;19913;-62
2022/07/15 13:27:28;;;;;;;;;;;24.70;44.10;;;;;;5069829;28;19908;-62
2022/07/15 13:29:54;;;;;;;;;;;24.80;43.40;;;;;;5061469;28;19916;-62
2022/07/15 13:32:19;;;;;;;;;;;24.80;43.20;;;;;;5071091;28;19908;-62
2022/07/15 13:34:45;;;;;;;;;;;24.80;43.40;;;;;;5070798;28;19970;-62
2022/07/15 13:37:10;;;;;;;;;;;24.70;43.40;;;;;;5071394;28;19913;-62
2022/07/15 13:39:36;;;;;;;;;;;24.80;43.40;;;;;;5071169;28;19912;-62
2022/07/15 13:42:01;;;;;;;;;;;24.90;43.30;;;;;;5065412;28;20765;-61
2022/07/15 13:44:27;;;;;;;;;;;24.90;43.20;;;;;;5058691;28;19915;-62
2022/07/15 13:46:52;;;;;;;;;;;24.90;43.20;;;;;;5071037;28;19956;-62
2022/07/15 13:49:17;;;;;;;;;;;24.90;43.40;;;;;;5070081;28;20433;-62
2022/07/15 13:51:43;;;;;;;;;;;24.80;43.40;;;;;;5071194;28;20361;-62
2022/07/15 13:54:11;;;;;;;;;;;24.90;43.40;;;;;;5069385;28;20264;-62
2022/07/15 13:56:36;;;;;;;;;;;24.90;43.40;;;;;;5071206;28;20330;-62
2022/07/15 13:59:02;;;;;;;;;;;24.90;43.50;;;;;;5070977;28;19999;-62
2022/07/15 14:01:30;;;;;;;;;;;24.90;43.40;;;;;;5079425;28;19916;-62
2022/07/15 14:03:55;;;;;;;;;;;24.90;43.50;;;;;;5073958;28;19913;-62
2022/07/15 14:06:21;;;;;;;;;;;24.90;43.50;;;;;;5074335;28;19958;-62
2022/07/15 14:08:46;;;;;;;;;;;24.90;43.50;;;;;;5070514;28;19909;-62
2022/07/15 14:11:12;;;;;;;;;;;24.90;43.40;;;;;;5066992;28;19920;-62
2022/07/15 14:13:38;;;;;;;;;;;24.90;43.40;;;;;;5074380;28;19924;-62
2022/07/15 14:16:03;;;;;;;;;;;24.80;43.20;;;;;;5074232;28;19918;-62
2022/07/15 14:18:45;;;;;;;;;;;24.80;43.10;;;;;;5074222;28;20360;-62
2022/07/15 14:21:11;;;;;;;;;;;24.80;43.00;;;;;;5073665;28;19920;-62
2022/07/15 14:23:36;;;;;;;;;;;24.90;42.90;;;;;;5072781;28;19908;-62
2022/07/15 14:26:02;;;;;;;;;;;24.90;42.80;;;;;;5074077;28;19908;-62
2022/07/15 14:28:27;;;;;;;;;;;24.90;42.80;;;;;;5070862;28;19923;-62